sensor_id;sensor_type;location;lat;lon;timestamp;P1;durP1;ratioP1;P2;durP2;ratioP2
81864;SDS011;71313;43.514;1.500;2023-11-19T00:02:18;11.50;;;5.75;;
81864;SDS011;71313;43.514;1.500;2023-11-19T00:04:46;12.13;;;5.95;;
81864;SDS011;71313;43.514;1.500;2023-11-19T00:07:12;9.63;;;6.22;;
81864;SDS011;71313;43.514;1.500;2023-11-19T00:09:39;10.45;;;5.93;;
81864;SDS011;71313;43.514;1.500;2023-11-19T00:12:05;10.27;;;5.40;;
81864;SDS011;71313;43.514;1.500;2023-11-19T00:14:33;8.30;;;4.85;;
81864;SDS011;71313;43.514;1.500;2023-11-19T00:16:59;13.80;;;5.60;;
81864;SDS011;71313;43.514;1.500;2023-11-19T00:19:25;8.90;;;4.53;;
81864;SDS011;71313;43.514;1.500;2023-11-19T00:21:51;9.65;;;4.68;;
81864;SDS011;71313;43.514;1.500;2023-11-19T00:24:17;8.98;;;5.05;;
81864;SDS011;71313;43.514;1.500;2023-11-19T00:26:43;7.68;;;4.60;;
81864;SDS011;71313;43.514;1.500;2023-11-19T00:29:09;9.75;;;5.22;;
81864;SDS011;71313;43.514;1.500;2023-11-19T00:31:34;13.65;;;7.82;;
81864;SDS011;71313;43.514;1.500;2023-11-19T00:34:00;11.85;;;6.80;;
81864;SDS011;71313;43.514;1.500;2023-11-19T00:36:26;10.40;;;6.95;;
81864;SDS011;71313;43.514;1.500;2023-11-19T00:38:54;9.98;;;5.70;;
81864;SDS011;71313;43.514;1.500;2023-11-19T00:41:20;10.88;;;6.07;;
81864;SDS011;71313;43.514;1.500;2023-11-19T00:43:46;11.00;;;5.90;;
81864;SDS011;71313;43.514;1.500;2023-11-19T00:46:14;9.18;;;5.40;;
81864;SDS011;71313;43.514;1.500;2023-11-19T00:48:39;10.13;;;6.22;;
81864;SDS011;71313;43.514;1.500;2023-11-19T00:51:05;9.55;;;5.88;;
81864;SDS011;71313;43.514;1.500;2023-11-19T00:53:31;11.05;;;6.03;;
81864;SDS011;71313;43.514;1.500;2023-11-19T00:55:59;10.85;;;5.90;;
81864;SDS011;71313;43.514;1.500;2023-11-19T00:58:27;9.82;;;6.20;;
81864;SDS011;71313;43.514;1.500;2023-11-19T01:00:54;8.43;;;5.05;;
81864;SDS011;71313;43.514;1.500;2023-11-19T01:03:22;7.15;;;5.03;;
81864;SDS011;71313;43.514;1.500;2023-11-19T01:05:47;8.55;;;4.70;;
81864;SDS011;71313;43.514;1.500;2023-11-19T01:08:13;8.07;;;4.65;;
81864;SDS011;71313;43.514;1.500;2023-11-19T01:10:39;6.50;;;4.45;;
81864;SDS011;71313;43.514;1.500;2023-11-19T01:13:05;7.95;;;4.90;;
81864;SDS011;71313;43.514;1.500;2023-11-19T01:15:33;7.80;;;4.65;;
81864;SDS011;71313;43.514;1.500;2023-11-19T01:18:01;8.80;;;4.63;;
81864;SDS011;71313;43.514;1.500;2023-11-19T01:20:29;6.60;;;4.43;;
81864;SDS011;71313;43.514;1.500;2023-11-19T01:22:55;7.53;;;4.72;;
81864;SDS011;71313;43.514;1.500;2023-11-19T01:25:22;8.63;;;5.00;;
81864;SDS011;71313;43.514;1.500;2023-11-19T01:27:47;9.88;;;5.50;;
81864;SDS011;71313;43.514;1.500;2023-11-19T01:30:15;7.78;;;4.90;;
81864;SDS011;71313;43.514;1.500;2023-11-19T01:32:40;10.93;;;5.47;;
81864;SDS011;71313;43.514;1.500;2023-11-19T01:35:08;8.27;;;5.18;;
81864;SDS011;71313;43.514;1.500;2023-11-19T01:37:36;7.90;;;5.28;;
81864;SDS011;71313;43.514;1.500;2023-11-19T01:40:02;10.90;;;5.45;;
81864;SDS011;71313;43.514;1.500;2023-11-19T01:42:29;7.30;;;4.60;;
81864;SDS011;71313;43.514;1.500;2023-11-19T01:45:01;10.30;;;5.00;;
81864;SDS011;71313;43.514;1.500;2023-11-19T01:47:30;7.97;;;5.18;;
81864;SDS011;71313;43.514;1.500;2023-11-19T01:49:56;8.20;;;4.97;;
81864;SDS011;71313;43.514;1.500;2023-11-19T01:52:22;13.10;;;5.15;;
81864;SDS011;71313;43.514;1.500;2023-11-19T01:54:48;6.32;;;4.30;;
81864;SDS011;71313;43.514;1.500;2023-11-19T01:57:14;8.18;;;5.05;;
81864;SDS011;71313;43.514;1.500;2023-11-19T01:59:42;6.30;;;3.92;;
81864;SDS011;71313;43.514;1.500;2023-11-19T02:02:08;8.05;;;4.47;;
81864;SDS011;71313;43.514;1.500;2023-11-19T02:04:34;10.63;;;4.82;;
81864;SDS011;71313;43.514;1.500;2023-11-19T02:07:00;8.10;;;4.82;;
81864;SDS011;71313;43.514;1.500;2023-11-19T02:09:27;7.65;;;4.47;;
81864;SDS011;71313;43.514;1.500;2023-11-19T02:11:53;7.43;;;4.63;;
81864;SDS011;71313;43.514;1.500;2023-11-19T02:14:21;9.18;;;4.90;;
81864;SDS011;71313;43.514;1.500;2023-11-19T02:16:50;8.38;;;4.72;;
81864;SDS011;71313;43.514;1.500;2023-11-19T02:19:19;8.55;;;4.40;;
81864;SDS011;71313;43.514;1.500;2023-11-19T02:21:46;7.68;;;4.90;;
81864;SDS011;71313;43.514;1.500;2023-11-19T02:24:14;8.65;;;4.32;;
81864;SDS011;71313;43.514;1.500;2023-11-19T02:26:52;9.45;;;4.85;;
81864;SDS011;71313;43.514;1.500;2023-11-19T02:29:21;7.05;;;4.40;;
81864;SDS011;71313;43.514;1.500;2023-11-19T02:31:52;10.40;;;4.70;;
81864;SDS011;71313;43.514;1.500;2023-11-19T02:34:20;10.23;;;4.70;;
81864;SDS011;71313;43.514;1.500;2023-11-19T02:36:46;8.05;;;5.07;;
81864;SDS011;71313;43.514;1.500;2023-11-19T02:39:12;7.45;;;4.97;;
81864;SDS011;71313;43.514;1.500;2023-11-19T02:41:38;8.13;;;5.10;;
81864;SDS011;71313;43.514;1.500;2023-11-19T02:44:05;8.27;;;5.00;;
81864;SDS011;71313;43.514;1.500;2023-11-19T02:46:33;9.73;;;5.10;;
81864;SDS011;71313;43.514;1.500;2023-11-19T02:49:01;9.57;;;5.35;;
81864;SDS011;71313;43.514;1.500;2023-11-19T02:51:28;7.82;;;4.72;;
81864;SDS011;71313;43.514;1.500;2023-11-19T02:53:55;9.55;;;5.30;;
81864;SDS011;71313;43.514;1.500;2023-11-19T02:56:22;9.60;;;5.18;;
81864;SDS011;71313;43.514;1.500;2023-11-19T02:58:54;8.60;;;5.35;;
81864;SDS011;71313;43.514;1.500;2023-11-19T03:01:21;9.77;;;5.57;;
81864;SDS011;71313;43.514;1.500;2023-11-19T03:03:57;8.63;;;4.97;;
81864;SDS011;71313;43.514;1.500;2023-11-19T03:06:23;9.73;;;5.60;;
81864;SDS011;71313;43.514;1.500;2023-11-19T03:08:49;9.18;;;5.15;;
81864;SDS011;71313;43.514;1.500;2023-11-19T03:11:17;7.75;;;5.65;;
81864;SDS011;71313;43.514;1.500;2023-11-19T03:13:44;8.90;;;5.30;;
81864;SDS011;71313;43.514;1.500;2023-11-19T03:16:11;8.32;;;5.03;;
81864;SDS011;71313;43.514;1.500;2023-11-19T03:18:37;8.75;;;5.28;;
81864;SDS011;71313;43.514;1.500;2023-11-19T03:21:04;9.55;;;5.45;;
81864;SDS011;71313;43.514;1.500;2023-11-19T03:23:30;8.85;;;5.35;;
81864;SDS011;71313;43.514;1.500;2023-11-19T03:25:57;8.35;;;5.35;;
81864;SDS011;71313;43.514;1.500;2023-11-19T03:28:28;9.57;;;5.70;;
81864;SDS011;71313;43.514;1.500;2023-11-19T03:30:54;7.25;;;5.43;;
81864;SDS011;71313;43.514;1.500;2023-11-19T03:33:21;8.82;;;5.40;;
81864;SDS011;71313;43.514;1.500;2023-11-19T03:35:48;9.30;;;5.60;;
81864;SDS011;71313;43.514;1.500;2023-11-19T03:38:14;9.77;;;5.60;;
81864;SDS011;71313;43.514;1.500;2023-11-19T03:40:39;9.98;;;5.07;;
81864;SDS011;71313;43.514;1.500;2023-11-19T03:43:07;8.23;;;5.63;;
81864;SDS011;71313;43.514;1.500;2023-11-19T03:45:34;8.60;;;5.88;;
81864;SDS011;71313;43.514;1.500;2023-11-19T03:48:02;8.73;;;5.45;;
81864;SDS011;71313;43.514;1.500;2023-11-19T03:50:27;8.85;;;5.35;;
81864;SDS011;71313;43.514;1.500;2023-11-19T03:52:54;7.90;;;5.32;;
81864;SDS011;71313;43.514;1.500;2023-11-19T03:55:19;8.95;;;5.47;;
81864;SDS011;71313;43.514;1.500;2023-11-19T03:57:49;8.55;;;5.95;;
81864;SDS011;71313;43.514;1.500;2023-11-19T04:00:15;8.85;;;5.65;;
81864;SDS011;71313;43.514;1.500;2023-11-19T04:02:46;7.85;;;5.30;;
81864;SDS011;71313;43.514;1.500;2023-11-19T04:05:13;9.52;;;5.45;;
81864;SDS011;71313;43.514;1.500;2023-11-19T04:07:38;8.48;;;5.40;;
81864;SDS011;71313;43.514;1.500;2023-11-19T04:10:04;7.82;;;5.30;;
81864;SDS011;71313;43.514;1.500;2023-11-19T04:12:30;8.48;;;5.30;;
81864;SDS011;71313;43.514;1.500;2023-11-19T04:14:58;8.50;;;5.28;;
81864;SDS011;71313;43.514;1.500;2023-11-19T04:17:24;8.40;;;5.80;;
81864;SDS011;71313;43.514;1.500;2023-11-19T04:19:49;10.45;;;5.57;;
81864;SDS011;71313;43.514;1.500;2023-11-19T04:22:15;9.43;;;5.57;;
81864;SDS011;71313;43.514;1.500;2023-11-19T04:24:41;8.48;;;5.28;;
81864;SDS011;71313;43.514;1.500;2023-11-19T04:27:10;9.50;;;5.72;;
81864;SDS011;71313;43.514;1.500;2023-11-19T04:29:39;9.70;;;5.63;;
81864;SDS011;71313;43.514;1.500;2023-11-19T04:32:10;9.23;;;5.57;;
81864;SDS011;71313;43.514;1.500;2023-11-19T04:34:37;9.02;;;5.35;;
81864;SDS011;71313;43.514;1.500;2023-11-19T04:37:03;8.93;;;5.53;;
81864;SDS011;71313;43.514;1.500;2023-11-19T04:39:29;7.78;;;5.65;;
81864;SDS011;71313;43.514;1.500;2023-11-19T04:41:56;7.88;;;5.32;;
81864;SDS011;71313;43.514;1.500;2023-11-19T04:44:24;8.98;;;5.80;;
81864;SDS011;71313;43.514;1.500;2023-11-19T04:46:52;7.88;;;5.53;;
81864;SDS011;71313;43.514;1.500;2023-11-19T04:49:17;9.15;;;5.57;;
81864;SDS011;71313;43.514;1.500;2023-11-19T04:51:46;9.13;;;5.55;;
81864;SDS011;71313;43.514;1.500;2023-11-19T04:54:15;11.40;;;6.05;;
81864;SDS011;71313;43.514;1.500;2023-11-19T04:56:44;8.57;;;5.18;;
81864;SDS011;71313;43.514;1.500;2023-11-19T04:59:10;8.85;;;5.75;;
81864;SDS011;71313;43.514;1.500;2023-11-19T05:01:36;10.20;;;5.35;;
81864;SDS011;71313;43.514;1.500;2023-11-19T05:04:01;10.32;;;5.43;;
81864;SDS011;71313;43.514;1.500;2023-11-19T05:06:30;9.68;;;5.57;;
81864;SDS011;71313;43.514;1.500;2023-11-19T05:09:00;8.13;;;5.40;;
81864;SDS011;71313;43.514;1.500;2023-11-19T05:11:26;8.15;;;5.13;;
81864;SDS011;71313;43.514;1.500;2023-11-19T05:13:54;7.47;;;5.22;;
81864;SDS011;71313;43.514;1.500;2023-11-19T05:16:21;8.85;;;5.53;;
81864;SDS011;71313;43.514;1.500;2023-11-19T05:18:47;10.45;;;5.55;;
81864;SDS011;71313;43.514;1.500;2023-11-19T05:21:13;9.13;;;5.43;;
81864;SDS011;71313;43.514;1.500;2023-11-19T05:23:38;9.63;;;5.32;;
81864;SDS011;71313;43.514;1.500;2023-11-19T05:26:06;8.15;;;5.10;;
81864;SDS011;71313;43.514;1.500;2023-11-19T05:28:33;9.52;;;5.18;;
81864;SDS011;71313;43.514;1.500;2023-11-19T05:30:59;7.90;;;5.10;;
81864;SDS011;71313;43.514;1.500;2023-11-19T05:33:28;9.75;;;5.30;;
81864;SDS011;71313;43.514;1.500;2023-11-19T05:35:54;9.00;;;5.05;;
81864;SDS011;71313;43.514;1.500;2023-11-19T05:38:20;8.88;;;5.07;;
81864;SDS011;71313;43.514;1.500;2023-11-19T05:40:48;7.13;;;5.00;;
81864;SDS011;71313;43.514;1.500;2023-11-19T05:43:15;8.73;;;4.72;;
81864;SDS011;71313;43.514;1.500;2023-11-19T05:45:42;7.80;;;4.65;;
81864;SDS011;71313;43.514;1.500;2023-11-19T05:48:08;6.93;;;4.80;;
81864;SDS011;71313;43.514;1.500;2023-11-19T05:50:34;7.78;;;4.40;;
81864;SDS011;71313;43.514;1.500;2023-11-19T05:53:00;9.63;;;4.57;;
81864;SDS011;71313;43.514;1.500;2023-11-19T05:55:30;8.95;;;5.05;;
81864;SDS011;71313;43.514;1.500;2023-11-19T05:57:56;9.63;;;5.00;;
81864;SDS011;71313;43.514;1.500;2023-11-19T06:00:21;8.00;;;4.90;;
81864;SDS011;71313;43.514;1.500;2023-11-19T06:02:49;7.63;;;4.90;;
81864;SDS011;71313;43.514;1.500;2023-11-19T06:05:14;7.97;;;4.60;;
81864;SDS011;71313;43.514;1.500;2023-11-19T06:07:40;7.55;;;4.80;;
81864;SDS011;71313;43.514;1.500;2023-11-19T06:10:06;9.30;;;5.18;;
81864;SDS011;71313;43.514;1.500;2023-11-19T06:12:34;8.57;;;4.80;;
81864;SDS011;71313;43.514;1.500;2023-11-19T06:15:03;8.93;;;4.60;;
81864;SDS011;71313;43.514;1.500;2023-11-19T06:17:30;8.48;;;4.80;;
81864;SDS011;71313;43.514;1.500;2023-11-19T06:19:55;7.53;;;4.78;;
81864;SDS011;71313;43.514;1.500;2023-11-19T06:22:21;8.13;;;4.90;;
81864;SDS011;71313;43.514;1.500;2023-11-19T06:24:48;7.82;;;4.93;;
81864;SDS011;71313;43.514;1.500;2023-11-19T06:27:14;7.70;;;5.13;;
81864;SDS011;71313;43.514;1.500;2023-11-19T06:29:40;7.32;;;4.38;;
81864;SDS011;71313;43.514;1.500;2023-11-19T06:32:08;7.55;;;5.03;;
81864;SDS011;71313;43.514;1.500;2023-11-19T06:34:35;10.23;;;5.50;;
81864;SDS011;71313;43.514;1.500;2023-11-19T06:37:03;8.35;;;4.65;;
81864;SDS011;71313;43.514;1.500;2023-11-19T06:39:30;8.13;;;4.90;;
81864;SDS011;71313;43.514;1.500;2023-11-19T06:41:55;7.68;;;4.82;;
81864;SDS011;71313;43.514;1.500;2023-11-19T06:44:23;7.65;;;5.05;;
81864;SDS011;71313;43.514;1.500;2023-11-19T06:46:51;8.32;;;4.70;;
81864;SDS011;71313;43.514;1.500;2023-11-19T06:49:16;8.52;;;4.70;;
81864;SDS011;71313;43.514;1.500;2023-11-19T06:51:43;7.43;;;4.63;;
81864;SDS011;71313;43.514;1.500;2023-11-19T06:54:09;8.43;;;4.57;;
81864;SDS011;71313;43.514;1.500;2023-11-19T06:56:34;7.30;;;4.55;;
81864;SDS011;71313;43.514;1.500;2023-11-19T06:59:00;7.95;;;4.50;;
81864;SDS011;71313;43.514;1.500;2023-11-19T07:01:26;7.80;;;4.53;;
81864;SDS011;71313;43.514;1.500;2023-11-19T07:03:59;8.68;;;4.68;;
81864;SDS011;71313;43.514;1.500;2023-11-19T07:06:33;9.32;;;5.07;;
81864;SDS011;71313;43.514;1.500;2023-11-19T07:08:58;7.55;;;5.32;;
81864;SDS011;71313;43.514;1.500;2023-11-19T07:11:34;7.63;;;5.15;;
81864;SDS011;71313;43.514;1.500;2023-11-19T07:14:07;8.85;;;4.65;;
81864;SDS011;71313;43.514;1.500;2023-11-19T07:16:33;11.20;;;5.45;;
81864;SDS011;71313;43.514;1.500;2023-11-19T07:19:02;8.27;;;5.13;;
81864;SDS011;71313;43.514;1.500;2023-11-19T07:21:28;8.63;;;5.25;;
81864;SDS011;71313;43.514;1.500;2023-11-19T07:23:57;8.48;;;5.30;;
81864;SDS011;71313;43.514;1.500;2023-11-19T07:26:25;7.57;;;4.93;;
81864;SDS011;71313;43.514;1.500;2023-11-19T07:28:51;8.18;;;5.25;;
81864;SDS011;71313;43.514;1.500;2023-11-19T07:31:20;9.15;;;5.57;;
81864;SDS011;71313;43.514;1.500;2023-11-19T07:33:48;8.73;;;4.88;;
81864;SDS011;71313;43.514;1.500;2023-11-19T07:36:14;8.45;;;5.35;;
81864;SDS011;71313;43.514;1.500;2023-11-19T07:38:41;8.65;;;5.70;;
81864;SDS011;71313;43.514;1.500;2023-11-19T07:41:07;10.60;;;5.43;;
81864;SDS011;71313;43.514;1.500;2023-11-19T07:43:37;8.40;;;5.40;;
81864;SDS011;71313;43.514;1.500;2023-11-19T07:46:10;9.73;;;5.75;;
81864;SDS011;71313;43.514;1.500;2023-11-19T07:48:39;10.02;;;5.43;;
81864;SDS011;71313;43.514;1.500;2023-11-19T07:51:06;7.43;;;4.88;;
81864;SDS011;71313;43.514;1.500;2023-11-19T07:53:33;8.57;;;5.32;;
81864;SDS011;71313;43.514;1.500;2023-11-19T07:55:59;13.38;;;7.00;;
81864;SDS011;71313;43.514;1.500;2023-11-19T07:58:26;13.40;;;7.13;;
81864;SDS011;71313;43.514;1.500;2023-11-19T08:00:53;13.38;;;6.88;;
81864;SDS011;71313;43.514;1.500;2023-11-19T08:03:21;10.93;;;7.05;;
81864;SDS011;71313;43.514;1.500;2023-11-19T08:05:50;9.23;;;5.88;;
81864;SDS011;71313;43.514;1.500;2023-11-19T08:08:15;9.65;;;6.10;;
81864;SDS011;71313;43.514;1.500;2023-11-19T08:10:41;9.10;;;5.38;;
81864;SDS011;71313;43.514;1.500;2023-11-19T08:13:08;9.48;;;6.15;;
81864;SDS011;71313;43.514;1.500;2023-11-19T08:15:36;8.70;;;5.95;;
81864;SDS011;71313;43.514;1.500;2023-11-19T08:18:01;10.35;;;6.05;;
81864;SDS011;71313;43.514;1.500;2023-11-19T08:20:27;10.85;;;6.18;;
81864;SDS011;71313;43.514;1.500;2023-11-19T08:22:55;9.98;;;6.03;;
81864;SDS011;71313;43.514;1.500;2023-11-19T08:25:22;8.20;;;4.85;;
81864;SDS011;71313;43.514;1.500;2023-11-19T08:27:49;7.63;;;4.65;;
81864;SDS011;71313;43.514;1.500;2023-11-19T08:30:17;7.88;;;5.03;;
81864;SDS011;71313;43.514;1.500;2023-11-19T08:32:44;8.32;;;4.90;;
81864;SDS011;71313;43.514;1.500;2023-11-19T08:35:10;7.32;;;4.90;;
81864;SDS011;71313;43.514;1.500;2023-11-19T08:37:38;9.70;;;4.80;;
81864;SDS011;71313;43.514;1.500;2023-11-19T08:40:05;7.90;;;4.85;;
81864;SDS011;71313;43.514;1.500;2023-11-19T08:42:32;7.97;;;5.10;;
81864;SDS011;71313;43.514;1.500;2023-11-19T08:44:57;9.07;;;5.05;;
81864;SDS011;71313;43.514;1.500;2023-11-19T08:47:23;8.00;;;5.20;;
81864;SDS011;71313;43.514;1.500;2023-11-19T08:49:52;9.13;;;5.22;;
81864;SDS011;71313;43.514;1.500;2023-11-19T08:52:20;8.40;;;5.55;;
81864;SDS011;71313;43.514;1.500;2023-11-19T08:54:46;7.85;;;5.05;;
81864;SDS011;71313;43.514;1.500;2023-11-19T08:57:12;7.35;;;4.68;;
81864;SDS011;71313;43.514;1.500;2023-11-19T08:59:38;11.27;;;5.40;;
81864;SDS011;71313;43.514;1.500;2023-11-19T09:02:05;8.23;;;5.20;;
81864;SDS011;71313;43.514;1.500;2023-11-19T09:04:32;7.43;;;5.03;;
81864;SDS011;71313;43.514;1.500;2023-11-19T09:06:58;8.52;;;5.68;;
81864;SDS011;71313;43.514;1.500;2023-11-19T09:09:24;8.00;;;5.47;;
81864;SDS011;71313;43.514;1.500;2023-11-19T09:11:50;10.88;;;6.10;;
81864;SDS011;71313;43.514;1.500;2023-11-19T09:14:18;8.52;;;5.40;;
81864;SDS011;71313;43.514;1.500;2023-11-19T09:16:50;8.27;;;5.22;;
81864;SDS011;71313;43.514;1.500;2023-11-19T09:19:18;9.73;;;5.28;;
81864;SDS011;71313;43.514;1.500;2023-11-19T09:21:43;9.13;;;5.57;;
81864;SDS011;71313;43.514;1.500;2023-11-19T09:24:09;9.00;;;5.43;;
81864;SDS011;71313;43.514;1.500;2023-11-19T09:26:36;7.85;;;5.88;;
81864;SDS011;71313;43.514;1.500;2023-11-19T09:29:06;8.40;;;5.35;;
81864;SDS011;71313;43.514;1.500;2023-11-19T09:31:33;8.95;;;5.45;;
81864;SDS011;71313;43.514;1.500;2023-11-19T09:34:00;8.00;;;5.40;;
81864;SDS011;71313;43.514;1.500;2023-11-19T09:36:26;11.55;;;5.57;;
81864;SDS011;71313;43.514;1.500;2023-11-19T09:38:55;9.20;;;5.20;;
81864;SDS011;71313;43.514;1.500;2023-11-19T09:41:21;7.60;;;5.38;;
81864;SDS011;71313;43.514;1.500;2023-11-19T09:43:50;8.52;;;5.07;;
81864;SDS011;71313;43.514;1.500;2023-11-19T09:46:16;8.40;;;5.28;;
81864;SDS011;71313;43.514;1.500;2023-11-19T09:48:42;8.88;;;5.10;;
81864;SDS011;71313;43.514;1.500;2023-11-19T09:51:11;8.60;;;5.07;;
81864;SDS011;71313;43.514;1.500;2023-11-19T09:53:38;9.40;;;5.13;;
81864;SDS011;71313;43.514;1.500;2023-11-19T09:56:04;11.02;;;5.80;;
81864;SDS011;71313;43.514;1.500;2023-11-19T09:58:30;8.45;;;5.20;;
81864;SDS011;71313;43.514;1.500;2023-11-19T10:00:57;8.50;;;5.13;;
81864;SDS011;71313;43.514;1.500;2023-11-19T10:03:34;7.05;;;5.07;;
81864;SDS011;71313;43.514;1.500;2023-11-19T10:06:08;9.35;;;5.13;;
81864;SDS011;71313;43.514;1.500;2023-11-19T10:08:37;7.63;;;5.00;;
81864;SDS011;71313;43.514;1.500;2023-11-19T10:11:08;8.55;;;5.22;;
81864;SDS011;71313;43.514;1.500;2023-11-19T10:13:38;8.38;;;4.93;;
81864;SDS011;71313;43.514;1.500;2023-11-19T10:16:09;7.70;;;5.05;;
81864;SDS011;71313;43.514;1.500;2023-11-19T10:18:45;7.13;;;4.47;;
81864;SDS011;71313;43.514;1.500;2023-11-19T10:21:12;7.07;;;4.70;;
81864;SDS011;71313;43.514;1.500;2023-11-19T10:23:52;8.20;;;4.70;;
81864;SDS011;71313;43.514;1.500;2023-11-19T10:26:23;7.65;;;4.90;;
81864;SDS011;71313;43.514;1.500;2023-11-19T10:28:49;6.18;;;4.28;;
81864;SDS011;71313;43.514;1.500;2023-11-19T10:31:17;8.43;;;4.75;;
81864;SDS011;71313;43.514;1.500;2023-11-19T10:33:50;8.15;;;3.97;;
81864;SDS011;71313;43.514;1.500;2023-11-19T10:36:16;5.93;;;4.00;;
81864;SDS011;71313;43.514;1.500;2023-11-19T10:38:51;6.28;;;4.20;;
81864;SDS011;71313;43.514;1.500;2023-11-19T10:41:39;7.07;;;4.15;;
81864;SDS011;71313;43.514;1.500;2023-11-19T10:44:06;8.18;;;3.95;;
81864;SDS011;71313;43.514;1.500;2023-11-19T10:46:39;6.70;;;3.90;;
81864;SDS011;71313;43.514;1.500;2023-11-19T10:49:09;8.75;;;4.40;;
81864;SDS011;71313;43.514;1.500;2023-11-19T10:51:34;6.65;;;4.30;;
81864;SDS011;71313;43.514;1.500;2023-11-19T10:54:04;7.05;;;4.40;;
81864;SDS011;71313;43.514;1.500;2023-11-19T10:56:30;5.35;;;3.53;;
81864;SDS011;71313;43.514;1.500;2023-11-19T10:58:57;5.45;;;3.40;;
81864;SDS011;71313;43.514;1.500;2023-11-19T11:01:29;6.20;;;3.40;;
81864;SDS011;71313;43.514;1.500;2023-11-19T11:04:05;4.80;;;3.47;;
81864;SDS011;71313;43.514;1.500;2023-11-19T11:06:37;5.28;;;3.83;;
81864;SDS011;71313;43.514;1.500;2023-11-19T11:09:05;6.03;;;3.28;;
81864;SDS011;71313;43.514;1.500;2023-11-19T11:11:36;5.68;;;3.88;;
81864;SDS011;71313;43.514;1.500;2023-11-19T11:14:05;7.35;;;4.30;;
81864;SDS011;71313;43.514;1.500;2023-11-19T11:16:32;5.70;;;3.63;;
81864;SDS011;71313;43.514;1.500;2023-11-19T11:18:59;7.68;;;4.30;;
81864;SDS011;71313;43.514;1.500;2023-11-19T11:21:26;5.65;;;3.60;;
81864;SDS011;71313;43.514;1.500;2023-11-19T11:24:19;6.68;;;3.90;;
81864;SDS011;71313;43.514;1.500;2023-11-19T11:29:35;6.15;;;3.58;;
81864;SDS011;71313;43.514;1.500;2023-11-19T11:38:10;5.68;;;3.50;;
81864;SDS011;71313;43.514;1.500;2023-11-19T11:40:39;4.25;;;2.95;;
81864;SDS011;71313;43.514;1.500;2023-11-19T11:43:31;5.38;;;3.40;;
81864;SDS011;71313;43.514;1.500;2023-11-19T11:48:58;6.13;;;3.42;;
81864;SDS011;71313;43.514;1.500;2023-11-19T12:02:10;5.93;;;2.97;;
81864;SDS011;71313;43.514;1.500;2023-11-19T12:04:39;6.70;;;3.83;;
81864;SDS011;71313;43.514;1.500;2023-11-19T12:07:06;6.57;;;3.42;;
81864;SDS011;71313;43.514;1.500;2023-11-19T12:09:38;6.22;;;3.70;;
81864;SDS011;71313;43.514;1.500;2023-11-19T12:12:17;5.82;;;3.20;;
81864;SDS011;71313;43.514;1.500;2023-11-19T12:20:05;5.13;;;2.88;;
81864;SDS011;71313;43.514;1.500;2023-11-19T12:22:43;5.93;;;2.80;;
81864;SDS011;71313;43.514;1.500;2023-11-19T12:25:12;4.97;;;3.28;;
81864;SDS011;71313;43.514;1.500;2023-11-19T12:27:41;6.40;;;3.50;;
81864;SDS011;71313;43.514;1.500;2023-11-19T12:30:17;5.78;;;3.13;;
81864;SDS011;71313;43.514;1.500;2023-11-19T12:32:47;4.28;;;3.15;;
81864;SDS011;71313;43.514;1.500;2023-11-19T12:35:14;6.40;;;3.10;;
81864;SDS011;71313;43.514;1.500;2023-11-19T12:37:45;6.40;;;3.65;;
81864;SDS011;71313;43.514;1.500;2023-11-19T12:40:16;5.53;;;3.40;;
81864;SDS011;71313;43.514;1.500;2023-11-19T12:42:48;5.40;;;3.50;;
81864;SDS011;71313;43.514;1.500;2023-11-19T12:45:15;5.18;;;3.30;;
81864;SDS011;71313;43.514;1.500;2023-11-19T12:47:42;4.82;;;3.20;;
81864;SDS011;71313;43.514;1.500;2023-11-19T12:50:12;5.40;;;3.13;;
81864;SDS011;71313;43.514;1.500;2023-11-19T12:52:38;4.95;;;2.92;;
81864;SDS011;71313;43.514;1.500;2023-11-19T12:55:05;5.35;;;3.45;;
81864;SDS011;71313;43.514;1.500;2023-11-19T12:57:48;5.78;;;3.60;;
81864;SDS011;71313;43.514;1.500;2023-11-19T13:00:18;6.07;;;2.83;;
81864;SDS011;71313;43.514;1.500;2023-11-19T13:02:50;5.80;;;3.65;;
81864;SDS011;71313;43.514;1.500;2023-11-19T13:08:06;7.07;;;3.83;;
81864;SDS011;71313;43.514;1.500;2023-11-19T13:10:33;5.47;;;3.65;;
81864;SDS011;71313;43.514;1.500;2023-11-19T13:13:13;5.00;;;3.10;;
81864;SDS011;71313;43.514;1.500;2023-11-19T13:15:41;7.35;;;3.75;;
81864;SDS011;71313;43.514;1.500;2023-11-19T13:18:11;6.65;;;3.25;;
81864;SDS011;71313;43.514;1.500;2023-11-19T13:20:36;6.35;;;3.50;;
81864;SDS011;71313;43.514;1.500;2023-11-19T13:23:04;4.93;;;3.38;;
81864;SDS011;71313;43.514;1.500;2023-11-19T13:25:30;8.55;;;3.58;;
81864;SDS011;71313;43.514;1.500;2023-11-19T13:28:00;7.20;;;3.92;;
81864;SDS011;71313;43.514;1.500;2023-11-19T13:30:26;7.22;;;3.28;;
81864;SDS011;71313;43.514;1.500;2023-11-19T13:32:54;7.57;;;3.72;;
81864;SDS011;71313;43.514;1.500;2023-11-19T13:35:22;5.78;;;3.00;;
81864;SDS011;71313;43.514;1.500;2023-11-19T13:37:52;4.55;;;3.03;;
81864;SDS011;71313;43.514;1.500;2023-11-19T13:40:19;4.93;;;2.63;;
81864;SDS011;71313;43.514;1.500;2023-11-19T13:42:46;4.93;;;3.10;;
81864;SDS011;71313;43.514;1.500;2023-11-19T13:45:12;5.85;;;3.35;;
81864;SDS011;71313;43.514;1.500;2023-11-19T13:47:43;5.32;;;2.60;;
81864;SDS011;71313;43.514;1.500;2023-11-19T13:50:10;7.38;;;2.85;;
81864;SDS011;71313;43.514;1.500;2023-11-19T13:52:38;4.82;;;2.78;;
81864;SDS011;71313;43.514;1.500;2023-11-19T13:55:05;4.38;;;3.30;;
81864;SDS011;71313;43.514;1.500;2023-11-19T13:57:32;5.22;;;2.72;;
81864;SDS011;71313;43.514;1.500;2023-11-19T13:59:59;5.82;;;2.95;;
81864;SDS011;71313;43.514;1.500;2023-11-19T14:02:25;8.60;;;2.78;;
81864;SDS011;71313;43.514;1.500;2023-11-19T14:04:50;4.97;;;2.80;;
81864;SDS011;71313;43.514;1.500;2023-11-19T14:07:17;4.88;;;2.90;;
81864;SDS011;71313;43.514;1.500;2023-11-19T14:09:43;3.60;;;2.53;;
81864;SDS011;71313;43.514;1.500;2023-11-19T14:12:10;5.05;;;2.75;;
81864;SDS011;71313;43.514;1.500;2023-11-19T14:14:38;4.68;;;2.92;;
81864;SDS011;71313;43.514;1.500;2023-11-19T14:17:04;3.70;;;2.70;;
81864;SDS011;71313;43.514;1.500;2023-11-19T14:19:30;3.45;;;2.60;;
81864;SDS011;71313;43.514;1.500;2023-11-19T14:21:57;4.45;;;2.67;;
81864;SDS011;71313;43.514;1.500;2023-11-19T14:24:24;5.90;;;2.95;;
81864;SDS011;71313;43.514;1.500;2023-11-19T14:26:53;5.15;;;2.30;;
81864;SDS011;71313;43.514;1.500;2023-11-19T14:29:23;6.68;;;2.45;;
81864;SDS011;71313;43.514;1.500;2023-11-19T14:31:51;3.40;;;2.38;;
81864;SDS011;71313;43.514;1.500;2023-11-19T14:34:19;6.47;;;2.67;;
81864;SDS011;71313;43.514;1.500;2023-11-19T14:36:45;4.30;;;2.42;;
81864;SDS011;71313;43.514;1.500;2023-11-19T14:39:10;3.95;;;2.60;;
81864;SDS011;71313;43.514;1.500;2023-11-19T14:41:38;6.35;;;3.00;;
81864;SDS011;71313;43.514;1.500;2023-11-19T14:44:05;3.38;;;2.70;;
81864;SDS011;71313;43.514;1.500;2023-11-19T14:46:32;3.80;;;2.28;;
81864;SDS011;71313;43.514;1.500;2023-11-19T14:48:57;7.85;;;4.78;;
81864;SDS011;71313;43.514;1.500;2023-11-19T14:51:24;7.80;;;3.67;;
81864;SDS011;71313;43.514;1.500;2023-11-19T14:53:49;4.85;;;2.67;;
81864;SDS011;71313;43.514;1.500;2023-11-19T14:56:17;3.83;;;2.47;;
81864;SDS011;71313;43.514;1.500;2023-11-19T14:58:43;5.13;;;2.70;;
81864;SDS011;71313;43.514;1.500;2023-11-19T15:01:13;4.50;;;2.53;;
81864;SDS011;71313;43.514;1.500;2023-11-19T15:03:39;5.47;;;2.58;;
81864;SDS011;71313;43.514;1.500;2023-11-19T15:06:05;5.25;;;2.58;;
81864;SDS011;71313;43.514;1.500;2023-11-19T15:08:31;4.38;;;2.67;;
81864;SDS011;71313;43.514;1.500;2023-11-19T15:10:59;3.58;;;2.58;;
81864;SDS011;71313;43.514;1.500;2023-11-19T15:13:27;3.72;;;2.25;;
81864;SDS011;71313;43.514;1.500;2023-11-19T15:15:53;4.60;;;3.35;;
81864;SDS011;71313;43.514;1.500;2023-11-19T15:18:18;5.43;;;2.65;;
81864;SDS011;71313;43.514;1.500;2023-11-19T15:20:45;3.22;;;2.10;;